sensor_id;sensor_type;location;lat;lon;timestamp;temperature;humidity
11087;DHT22;5597;47.588;9.642;2022-09-09T00:02:32;13.10;99.90
11087;DHT22;5597;47.588;9.642;2022-09-09T00:05:00;13.20;99.90
11087;DHT22;5597;47.588;9.642;2022-09-09T00:10:17;13.20;99.90
11087;DHT22;5597;47.588;9.642;2022-09-09T00:16:02;13.20;99.90
11087;DHT22;5597;47.588;9.642;2022-09-09T00:18:57;13.10;99.90
11087;DHT22;5597;47.588;9.642;2022-09-09T00:21:26;13.10;99.90
11087;DHT22;5597;47.588;9.642;2022-09-09T00:23:56;13.10;99.90
11087;DHT22;5597;47.588;9.642;2022-09-09T00:26:41;13.10;99.90
11087;DHT22;5597;47.588;9.642;2022-09-09T00:31:34;13.10;99.90
11087;DHT22;5597;47.588;9.642;2022-09-09T00:36:33;13.10;99.90
11087;DHT22;5597;47.588;9.642;2022-09-09T00:39:02;13.10;99.90
11087;DHT22;5597;47.588;9.642;2022-09-09T00:41:53;13.20;99.90
11087;DHT22;5597;47.588;9.642;2022-09-09T00:44:32;13.20;99.90
11087;DHT22;5597;47.588;9.642;2022-09-09T00:55:57;13.40;99.90
11087;DHT22;5597;47.588;9.642;2022-09-09T00:58:26;13.40;99.90
11087;DHT22;5597;47.588;9.642;2022-09-09T01:01:05;13.40;99.90
11087;DHT22;5597;47.588;9.642;2022-09-09T01:03:54;13.40;99.90
11087;DHT22;5597;47.588;9.642;2022-09-09T01:06:38;13.30;99.90
11087;DHT22;5597;47.588;9.642;2022-09-09T01:09:07;13.30;99.90
11087;DHT22;5597;47.588;9.642;2022-09-09T01:11:43;13.30;99.90
11087;DHT22;5597;47.588;9.642;2022-09-09T01:16:58;13.30;99.90
11087;DHT22;5597;47.588;9.642;2022-09-09T01:22:26;13.30;99.90
11087;DHT22;5597;47.588;9.642;2022-09-09T01:27:34;13.30;99.90
11087;DHT22;5597;47.588;9.642;2022-09-09T01:30:04;13.30;99.90
11087;DHT22;5597;47.588;9.642;2022-09-09T01:32:57;13.30;99.90
11087;DHT22;5597;47.588;9.642;2022-09-09T01:35:45;13.20;99.90
11087;DHT22;5597;47.588;9.642;2022-09-09T01:38:14;13.30;99.90
11087;DHT22;5597;47.588;9.642;2022-09-09T01:40:40;13.20;99.90
11087;DHT22;5597;47.588;9.642;2022-09-09T01:43:06;13.20;99.90
11087;DHT22;5597;47.588;9.642;2022-09-09T01:45:33;13.20;99.90
11087;DHT22;5597;47.588;9.642;2022-09-09T01:47:59;13.30;99.90
11087;DHT22;5597;47.588;9.642;2022-09-09T01:50:25;13.20;99.90
11087;DHT22;5597;47.588;9.642;2022-09-09T01:52:56;13.30;99.90
11087;DHT22;5597;47.588;9.642;2022-09-09T01:55:39;13.20;99.90
11087;DHT22;5597;47.588;9.642;2022-09-09T01:58:16;13.20;99.90
11087;DHT22;5597;47.588;9.642;2022-09-09T02:00:51;13.20;99.90
11087;DHT22;5597;47.588;9.642;2022-09-09T02:03:27;13.20;99.90
11087;DHT22;5597;47.588;9.642;2022-09-09T02:08:36;13.10;99.90
11087;DHT22;5597;47.588;9.642;2022-09-09T02:13:37;13.10;99.90
11087;DHT22;5597;47.588;9.642;2022-09-09T02:16:08;13.00;99.90
11087;DHT22;5597;47.588;9.642;2022-09-09T02:21:18;13.00;99.90
11087;DHT22;5597;47.588;9.642;2022-09-09T02:23:46;13.00;99.90
11087;DHT22;5597;47.588;9.642;2022-09-09T02:26:14;13.00;99.90
11087;DHT22;5597;47.588;9.642;2022-09-09T02:28:46;13.00;99.90
11087;DHT22;5597;47.588;9.642;2022-09-09T02:31:16;13.00;99.90
11087;DHT22;5597;47.588;9.642;2022-09-09T02:33:45;13.00;99.90
11087;DHT22;5597;47.588;9.642;2022-09-09T02:36:15;13.00;99.90
11087;DHT22;5597;47.588;9.642;2022-09-09T02:38:46;12.90;99.90
11087;DHT22;5597;47.588;9.642;2022-09-09T02:41:19;12.90;99.90
11087;DHT22;5597;47.588;9.642;2022-09-09T02:43:47;12.90;99.90
11087;DHT22;5597;47.588;9.642;2022-09-09T02:49:10;12.80;99.90
11087;DHT22;5597;47.588;9.642;2022-09-09T02:54:32;12.70;99.90
11087;DHT22;5597;47.588;9.642;2022-09-09T02:57:12;12.70;99.90
11087;DHT22;5597;47.588;9.642;2022-09-09T02:59:39;12.70;99.90
11087;DHT22;5597;47.588;9.642;2022-09-09T03:02:05;12.70;99.90
11087;DHT22;5597;47.588;9.642;2022-09-09T03:04:31;12.60;99.90
11087;DHT22;5597;47.588;9.642;2022-09-09T03:06:57;12.60;99.90
11087;DHT22;5597;47.588;9.642;2022-09-09T03:09:23;12.60;99.90
11087;DHT22;5597;47.588;9.642;2022-09-09T03:11:49;12.60;99.90
11087;DHT22;5597;47.588;9.642;2022-09-09T03:14:15;12.70;99.90
11087;DHT22;5597;47.588;9.642;2022-09-09T03:16:41;12.60;99.90
11087;DHT22;5597;47.588;9.642;2022-09-09T03:19:08;12.60;99.90
11087;DHT22;5597;47.588;9.642;2022-09-09T03:21:34;12.70;99.90
11087;DHT22;5597;47.588;9.642;2022-09-09T03:24:01;12.60;99.90
11087;DHT22;5597;47.588;9.642;2022-09-09T03:26:29;12.60;99.90
11087;DHT22;5597;47.588;9.642;2022-09-09T03:28:55;12.60;99.90
11087;DHT22;5597;47.588;9.642;2022-09-09T03:31:21;12.70;99.90
11087;DHT22;5597;47.588;9.642;2022-09-09T03:33:47;12.70;99.90
11087;DHT22;5597;47.588;9.642;2022-09-09T03:36:14;12.70;99.90
11087;DHT22;5597;47.588;9.642;2022-09-09T03:38:40;12.70;99.90
11087;DHT22;5597;47.588;9.642;2022-09-09T03:41:06;12.80;99.90
11087;DHT22;5597;47.588;9.642;2022-09-09T03:43:33;12.80;99.90
11087;DHT22;5597;47.588;9.642;2022-09-09T03:45:58;12.80;99.90
11087;DHT22;5597;47.588;9.642;2022-09-09T03:48:24;12.90;99.90
11087;DHT22;5597;47.588;9.642;2022-09-09T03:50:53;12.90;99.90
11087;DHT22;5597;47.588;9.642;2022-09-09T03:53:20;13.00;99.90
11087;DHT22;5597;47.588;9.642;2022-09-09T03:55:47;13.00;99.90
11087;DHT22;5597;47.588;9.642;2022-09-09T03:58:14;13.10;99.90
11087;DHT22;5597;47.588;9.642;2022-09-09T04:00:40;13.20;99.90
11087;DHT22;5597;47.588;9.642;2022-09-09T04:03:11;13.20;99.90
11087;DHT22;5597;47.588;9.642;2022-09-09T04:05:38;13.20;99.90
11087;DHT22;5597;47.588;9.642;2022-09-09T04:08:06;13.30;99.90
11087;DHT22;5597;47.588;9.642;2022-09-09T04:10:31;13.30;99.90
11087;DHT22;5597;47.588;9.642;2022-09-09T04:12:57;13.30;99.90
11087;DHT22;5597;47.588;9.642;2022-09-09T04:15:22;13.40;99.90
11087;DHT22;5597;47.588;9.642;2022-09-09T04:17:48;13.40;99.90
11087;DHT22;5597;47.588;9.642;2022-09-09T04:20:15;13.50;99.90
11087;DHT22;5597;47.588;9.642;2022-09-09T04:22:40;13.50;99.90
11087;DHT22;5597;47.588;9.642;2022-09-09T04:25:06;13.50;99.90
11087;DHT22;5597;47.588;9.642;2022-09-09T04:27:32;13.50;99.90
11087;DHT22;5597;47.588;9.642;2022-09-09T04:29:57;13.60;99.90
11087;DHT22;5597;47.588;9.642;2022-09-09T04:32:24;13.60;99.90
11087;DHT22;5597;47.588;9.642;2022-09-09T04:34:52;13.70;99.90
11087;DHT22;5597;47.588;9.642;2022-09-09T04:37:18;13.80;99.90
11087;DHT22;5597;47.588;9.642;2022-09-09T04:39:43;13.90;99.90
11087;DHT22;5597;47.588;9.642;2022-09-09T04:42:09;14.00;99.90
11087;DHT22;5597;47.588;9.642;2022-09-09T04:44:34;14.00;99.90
11087;DHT22;5597;47.588;9.642;2022-09-09T04:47:00;14.10;99.90
11087;DHT22;5597;47.588;9.642;2022-09-09T04:49:25;14.20;99.90
11087;DHT22;5597;47.588;9.642;2022-09-09T04:51:51;14.20;99.90
11087;DHT22;5597;47.588;9.642;2022-09-09T04:54:17;14.30;99.90
11087;DHT22;5597;47.588;9.642;2022-09-09T04:56:43;14.40;99.90
11087;DHT22;5597;47.588;9.642;2022-09-09T04:59:08;14.50;99.90
11087;DHT22;5597;47.588;9.642;2022-09-09T05:01:35;14.50;99.90
11087;DHT22;5597;47.588;9.642;2022-09-09T05:04:02;14.60;99.90
11087;DHT22;5597;47.588;9.642;2022-09-09T05:06:28;14.70;99.90
11087;DHT22;5597;47.588;9.642;2022-09-09T05:08:56;14.70;99.90
11087;DHT22;5597;47.588;9.642;2022-09-09T05:11:25;14.70;99.90
11087;DHT22;5597;47.588;9.642;2022-09-09T05:13:51;14.80;99.90
11087;DHT22;5597;47.588;9.642;2022-09-09T05:16:18;14.80;99.90
11087;DHT22;5597;47.588;9.642;2022-09-09T05:18:44;14.80;99.90
11087;DHT22;5597;47.588;9.642;2022-09-09T05:21:12;14.80;99.90
11087;DHT22;5597;47.588;9.642;2022-09-09T05:23:38;14.80;99.90
11087;DHT22;5597;47.588;9.642;2022-09-09T05:26:04;14.80;99.90
11087;DHT22;5597;47.588;9.642;2022-09-09T05:28:31;14.80;99.90
11087;DHT22;5597;47.588;9.642;2022-09-09T05:31:00;14.80;99.90
11087;DHT22;5597;47.588;9.642;2022-09-09T05:33:29;14.90;99.90
11087;DHT22;5597;47.588;9.642;2022-09-09T05:36:06;14.90;99.90
11087;DHT22;5597;47.588;9.642;2022-09-09T05:38:33;14.90;99.90
11087;DHT22;5597;47.588;9.642;2022-09-09T05:40:59;14.90;99.90
11087;DHT22;5597;47.588;9.642;2022-09-09T05:43:26;15.00;99.90
11087;DHT22;5597;47.588;9.642;2022-09-09T05:46:05;15.00;99.90
11087;DHT22;5597;47.588;9.642;2022-09-09T05:48:32;15.00;99.90
11087;DHT22;5597;47.588;9.642;2022-09-09T05:50:58;15.00;99.90
11087;DHT22;5597;47.588;9.642;2022-09-09T05:53:26;15.10;99.90
11087;DHT22;5597;47.588;9.642;2022-09-09T05:55:59;15.10;99.90
11087;DHT22;5597;47.588;9.642;2022-09-09T05:58:25;15.10;99.90
11087;DHT22;5597;47.588;9.642;2022-09-09T06:00:50;15.10;99.90
11087;DHT22;5597;47.588;9.642;2022-09-09T06:03:16;15.10;99.90
11087;DHT22;5597;47.588;9.642;2022-09-09T06:05:42;15.20;99.90
11087;DHT22;5597;47.588;9.642;2022-09-09T06:08:08;15.20;99.90
11087;DHT22;5597;47.588;9.642;2022-09-09T06:10:33;15.30;99.90
11087;DHT22;5597;47.588;9.642;2022-09-09T06:12:59;15.30;99.90
11087;DHT22;5597;47.588;9.642;2022-09-09T06:15:25;15.30;99.90
11087;DHT22;5597;47.588;9.642;2022-09-09T06:17:55;15.40;99.90
11087;DHT22;5597;47.588;9.642;2022-09-09T06:20:21;15.50;99.90
11087;DHT22;5597;47.588;9.642;2022-09-09T06:22:50;15.50;99.90
11087;DHT22;5597;47.588;9.642;2022-09-09T06:25:15;15.60;99.90
11087;DHT22;5597;47.588;9.642;2022-09-09T06:27:41;15.70;99.90
11087;DHT22;5597;47.588;9.642;2022-09-09T06:30:08;15.70;99.90
11087;DHT22;5597;47.588;9.642;2022-09-09T06:32:33;15.80;99.90
11087;DHT22;5597;47.588;9.642;2022-09-09T06:35:02;15.80;99.90
11087;DHT22;5597;47.588;9.642;2022-09-09T06:37:27;15.90;99.90
11087;DHT22;5597;47.588;9.642;2022-09-09T06:39:53;15.90;99.90
11087;DHT22;5597;47.588;9.642;2022-09-09T06:42:20;15.90;99.90
11087;DHT22;5597;47.588;9.642;2022-09-09T06:44:45;15.90;99.90
11087;DHT22;5597;47.588;9.642;2022-09-09T06:47:11;15.90;99.90
11087;DHT22;5597;47.588;9.642;2022-09-09T06:49:36;15.80;99.90
11087;DHT22;5597;47.588;9.642;2022-09-09T06:52:02;15.90;99.90
11087;DHT22;5597;47.588;9.642;2022-09-09T06:54:27;15.90;99.90
11087;DHT22;5597;47.588;9.642;2022-09-09T06:56:53;15.90;99.90
11087;DHT22;5597;47.588;9.642;2022-09-09T06:59:19;16.00;99.90
11087;DHT22;5597;47.588;9.642;2022-09-09T07:01:45;16.00;99.90
11087;DHT22;5597;47.588;9.642;2022-09-09T07:04:12;16.10;99.90
11087;DHT22;5597;47.588;9.642;2022-09-09T07:06:42;16.10;99.90
11087;DHT22;5597;47.588;9.642;2022-09-09T07:09:13;16.00;99.90
11087;DHT22;5597;47.588;9.642;2022-09-09T07:11:50;16.10;99.90
11087;DHT22;5597;47.588;9.642;2022-09-09T07:14:18;16.10;99.90
11087;DHT22;5597;47.588;9.642;2022-09-09T07:16:44;16.10;99.90
11087;DHT22;5597;47.588;9.642;2022-09-09T07:19:11;16.10;99.90
11087;DHT22;5597;47.588;9.642;2022-09-09T07:21:38;16.10;99.90
11087;DHT22;5597;47.588;9.642;2022-09-09T07:24:05;16.10;99.90
11087;DHT22;5597;47.588;9.642;2022-09-09T07:26:33;16.10;99.90
11087;DHT22;5597;47.588;9.642;2022-09-09T07:28:59;16.10;99.90
11087;DHT22;5597;47.588;9.642;2022-09-09T07:31:30;16.10;99.90
11087;DHT22;5597;47.588;9.642;2022-09-09T07:33:56;16.20;99.90
11087;DHT22;5597;47.588;9.642;2022-09-09T07:36:28;16.30;99.90
11087;DHT22;5597;47.588;9.642;2022-09-09T07:38:56;16.40;99.90
11087;DHT22;5597;47.588;9.642;2022-09-09T07:41:31;16.50;99.90
11087;DHT22;5597;47.588;9.642;2022-09-09T07:43:59;16.70;99.90
11087;DHT22;5597;47.588;9.642;2022-09-09T07:46:26;16.80;99.90
11087;DHT22;5597;47.588;9.642;2022-09-09T07:48:56;17.00;99.90
11087;DHT22;5597;47.588;9.642;2022-09-09T07:51:33;17.00;99.90
11087;DHT22;5597;47.588;9.642;2022-09-09T07:54:02;17.10;99.90
11087;DHT22;5597;47.588;9.642;2022-09-09T07:56:28;17.10;99.90
11087;DHT22;5597;47.588;9.642;2022-09-09T07:58:55;17.10;99.90
11087;DHT22;5597;47.588;9.642;2022-09-09T08:01:26;17.10;99.90
11087;DHT22;5597;47.588;9.642;2022-09-09T08:04:00;17.10;99.90
11087;DHT22;5597;47.588;9.642;2022-09-09T08:06:32;17.10;99.90
11087;DHT22;5597;47.588;9.642;2022-09-09T08:09:00;17.10;99.90
11087;DHT22;5597;47.588;9.642;2022-09-09T08:11:28;17.20;99.90
11087;DHT22;5597;47.588;9.642;2022-09-09T08:13:54;17.20;99.90
11087;DHT22;5597;47.588;9.642;2022-09-09T08:16:23;17.20;99.90
11087;DHT22;5597;47.588;9.642;2022-09-09T08:18:50;17.20;99.90
11087;DHT22;5597;47.588;9.642;2022-09-09T08:21:23;17.20;99.90
11087;DHT22;5597;47.588;9.642;2022-09-09T08:23:51;17.20;99.90
11087;DHT22;5597;47.588;9.642;2022-09-09T08:26:18;17.20;99.90
11087;DHT22;5597;47.588;9.642;2022-09-09T08:28:53;17.20;99.90
11087;DHT22;5597;47.588;9.642;2022-09-09T08:31:24;17.20;99.90
11087;DHT22;5597;47.588;9.642;2022-09-09T08:33:50;17.20;99.90
11087;DHT22;5597;47.588;9.642;2022-09-09T08:36:19;17.20;99.90
11087;DHT22;5597;47.588;9.642;2022-09-09T08:38:51;17.30;99.90
11087;DHT22;5597;47.588;9.642;2022-09-09T08:44:01;17.30;99.90
11087;DHT22;5597;47.588;9.642;2022-09-09T08:46:58;17.40;99.90
11087;DHT22;5597;47.588;9.642;2022-09-09T08:49:53;17.40;99.90
11087;DHT22;5597;47.588;9.642;2022-09-09T08:55:26;17.40;99.90
11087;DHT22;5597;47.588;9.642;2022-09-09T08:57:54;17.40;99.90
11087;DHT22;5597;47.588;9.642;2022-09-09T09:00:21;17.50;99.90
11087;DHT22;5597;47.588;9.642;2022-09-09T09:05:37;17.60;99.90
11087;DHT22;5597;47.588;9.642;2022-09-09T09:10:51;17.80;99.90
11087;DHT22;5597;47.588;9.642;2022-09-09T09:18:47;17.90;99.90
11087;DHT22;5597;47.588;9.642;2022-09-09T09:21:32;18.00;99.90
11087;DHT22;5597;47.588;9.642;2022-09-09T09:24:00;18.10;99.90
11087;DHT22;5597;47.588;9.642;2022-09-09T09:26:33;18.20;99.90
11087;DHT22;5597;47.588;9.642;2022-09-09T09:28:59;18.40;99.90
11087;DHT22;5597;47.588;9.642;2022-09-09T09:31:26;18.60;99.90
11087;DHT22;5597;47.588;9.642;2022-09-09T09:33:56;18.70;99.90
11087;DHT22;5597;47.588;9.642;2022-09-09T09:36:54;18.90;99.90
11087;DHT22;5597;47.588;9.642;2022-09-09T09:39:34;18.90;99.90
11087;DHT22;5597;47.588;9.642;2022-09-09T09:42:16;19.00;99.90
11087;DHT22;5597;47.588;9.642;2022-09-09T09:44:43;19.20;99.90
11087;DHT22;5597;47.588;9.642;2022-09-09T09:47:17;19.20;99.90
11087;DHT22;5597;47.588;9.642;2022-09-09T09:49:57;19.30;99.90
11087;DHT22;5597;47.588;9.642;2022-09-09T09:52:28;19.30;99.90
11087;DHT22;5597;47.588;9.642;2022-09-09T09:54:56;19.40;99.90
11087;DHT22;5597;47.588;9.642;2022-09-09T09:57:30;19.50;99.90
11087;DHT22;5597;47.588;9.642;2022-09-09T10:02:39;19.60;99.90
11087;DHT22;5597;47.588;9.642;2022-09-09T10:05:20;19.70;99.90
11087;DHT22;5597;47.588;9.642;2022-09-09T10:07:59;19.80;99.90
11087;DHT22;5597;47.588;9.642;2022-09-09T10:13:14;20.00;99.90
11087;DHT22;5597;47.588;9.642;2022-09-09T10:16:01;20.00;99.90
11087;DHT22;5597;47.588;9.642;2022-09-09T10:18:40;20.00;99.90
11087;DHT22;5597;47.588;9.642;2022-09-09T10:40:32;22.70;99.90
11087;DHT22;5597;47.588;9.642;2022-09-09T10:54:16;23.30;99.90
11087;DHT22;5597;47.588;9.642;2022-09-09T10:56:44;23.50;99.90
11087;DHT22;5597;47.588;9.642;2022-09-09T10:59:28;23.60;99.90
11087;DHT22;5597;47.588;9.642;2022-09-09T11:02:17;23.70;99.90
11087;DHT22;5597;47.588;9.642;2022-09-09T11:04:53;23.80;99.90
11087;DHT22;5597;47.588;9.642;2022-09-09T11:07:33;24.00;99.90
11087;DHT22;5597;47.588;9.642;2022-09-09T11:10:03;24.10;99.90
11087;DHT22;5597;47.588;9.642;2022-09-09T11:12:34;24.20;99.90
11087;DHT22;5597;47.588;9.642;2022-09-09T11:20:01;23.70;99.90
11087;DHT22;5597;47.588;9.642;2022-09-09T11:22:39;23.70;99.90
11087;DHT22;5597;47.588;9.642;2022-09-09T11:25:26;23.60;99.90
11087;DHT22;5597;47.588;9.642;2022-09-09T11:30:46;23.10;99.90
11087;DHT22;5597;47.588;9.642;2022-09-09T11:36:36;22.90;99.90
11087;DHT22;5597;47.588;9.642;2022-09-09T11:40:14;22.70;99.90
11087;DHT22;5597;47.588;9.642;2022-09-09T11:44:39;22.40;99.90
11087;DHT22;5597;47.588;9.642;2022-09-09T11:49:50;21.90;99.90
11087;DHT22;5597;47.588;9.642;2022-09-09T11:52:36;21.70;99.90
11087;DHT22;5597;47.588;9.642;2022-09-09T11:55:28;21.50;99.90
11087;DHT22;5597;47.588;9.642;2022-09-09T11:58:03;21.50;99.90
11087;DHT22;5597;47.588;9.642;2022-09-09T12:00:47;21.40;99.90
11087;DHT22;5597;47.588;9.642;2022-09-09T12:03:47;21.20;99.90
11087;DHT22;5597;47.588;9.642;2022-09-09T12:06:29;21.00;99.90
11087;DHT22;5597;47.588;9.642;2022-09-09T12:11:50;20.70;99.90
11087;DHT22;5597;47.588;9.642;2022-09-09T12:14:35;20.70;99.90
11087;DHT22;5597;47.588;9.642;2022-09-09T12:17:21;20.70;99.90
11087;DHT22;5597;47.588;9.642;2022-09-09T12:19:48;20.80;99.90
11087;DHT22;5597;47.588;9.642;2022-09-09T12:28:18;20.70;99.90
11087;DHT22;5597;47.588;9.642;2022-09-09T12:31:25;20.50;99.90
11087;DHT22;5597;47.588;9.642;2022-09-09T12:33:51;20.40;99.90
11087;DHT22;5597;47.588;9.642;2022-09-09T12:36:27;20.30;99.90
11087;DHT22;5597;47.588;9.642;2022-09-09T12:38:58;20.30;99.90
11087;DHT22;5597;47.588;9.642;2022-09-09T12:41:26;20.30;99.90
11087;DHT22;5597;47.588;9.642;2022-09-09T12:44:04;20.30;99.90
11087;DHT22;5597;47.588;9.642;2022-09-09T12:46:41;20.40;99.90
11087;DHT22;5597;47.588;9.642;2022-09-09T12:49:35;20.40;99.90
11087;DHT22;5597;47.588;9.642;2022-09-09T12:52:13;20.50;99.90
11087;DHT22;5597;47.588;9.642;2022-09-09T12:54:44;20.60;99.90
11087;DHT22;5597;47.588;9.642;2022-09-09T12:57:12;20.70;99.90
11087;DHT22;5597;47.588;9.642;2022-09-09T12:59:41;20.80;99.90
11087;DHT22;5597;47.588;9.642;2022-09-09T13:02:26;20.90;99.90
11087;DHT22;5597;47.588;9.642;2022-09-09T13:04:53;21.10;99.90
11087;DHT22;5597;47.588;9.642;2022-09-09T13:07:20;21.30;99.90
11087;DHT22;5597;47.588;9.642;2022-09-09T13:09:48;21.60;99.90
11087;DHT22;5597;47.588;9.642;2022-09-09T13:12:19;21.90;99.90
11087;DHT22;5597;47.588;9.642;2022-09-09T13:14:49;22.40;99.90
11087;DHT22;5597;47.588;9.642;2022-09-09T13:17:24;22.90;99.90
11087;DHT22;5597;47.588;9.642;2022-09-09T13:19:51;23.00;99.90
11087;DHT22;5597;47.588;9.642;2022-09-09T13:22:31;23.30;99.90
11087;DHT22;5597;47.588;9.642;2022-09-09T13:27:33;23.80;99.90
11087;DHT22;5597;47.588;9.642;2022-09-09T13:30:00;24.00;99.90
11087;DHT22;5597;47.588;9.642;2022-09-09T13:32:27;24.10;99.90
11087;DHT22;5597;47.588;9.642;2022-09-09T13:35:02;24.20;99.90
11087;DHT22;5597;47.588;9.642;2022-09-09T13:37:36;24.20;99.90
11087;DHT22;5597;47.588;9.642;2022-09-09T13:40:04;24.30;99.90
11087;DHT22;5597;47.588;9.642;2022-09-09T13:42:33;24.30;99.90
11087;DHT22;5597;47.588;9.642;2022-09-09T13:45:00;24.40;99.90
11087;DHT22;5597;47.588;9.642;2022-09-09T13:47:30;24.60;99.90
11087;DHT22;5597;47.588;9.642;2022-09-09T13:49:56;24.70;99.90
11087;DHT22;5597;47.588;9.642;2022-09-09T13:52:23;24.80;99.90
11087;DHT22;5597;47.588;9.642;2022-09-09T13:54:50;24.90;99.90
11087;DHT22;5597;47.588;9.642;2022-09-09T13:59:43;25.20;99.90
11087;DHT22;5597;47.588;9.642;2022-09-09T14:02:09;25.30;99.90
11087;DHT22;5597;47.588;9.642;2022-09-09T14:04:35;25.20;99.90
11087;DHT22;5597;47.588;9.642;2022-09-09T14:07:01;25.30;99.90
11087;DHT22;5597;47.588;9.642;2022-09-09T14:09:27;25.40;99.90
11087;DHT22;5597;47.588;9.642;2022-09-09T14:11:52;25.60;99.90
11087;DHT22;5597;47.588;9.642;2022-09-09T14:14:18;25.60;99.90
11087;DHT22;5597;47.588;9.642;2022-09-09T14:16:43;25.70;99.90
11087;DHT22;5597;47.588;9.642;2022-09-09T14:19:09;25.80;99.90
11087;DHT22;5597;47.588;9.642;2022-09-09T14:21:35;25.90;99.90
11087;DHT22;5597;47.588;9.642;2022-09-09T14:24:01;25.90;99.90
11087;DHT22;5597;47.588;9.642;2022-09-09T14:26:26;26.00;99.90
11087;DHT22;5597;47.588;9.642;2022-09-09T14:28:54;26.20;99.90
11087;DHT22;5597;47.588;9.642;2022-09-09T14:31:19;26.30;99.90
11087;DHT22;5597;47.588;9.642;2022-09-09T14:33:46;26.30;99.90
11087;DHT22;5597;47.588;9.642;2022-09-09T14:36:12;26.40;99.90
11087;DHT22;5597;47.588;9.642;2022-09-09T14:38:38;26.50;99.90
11087;DHT22;5597;47.588;9.642;2022-09-09T14:41:12;26.50;99.90
11087;DHT22;5597;47.588;9.642;2022-09-09T14:43:39;26.50;99.90
11087;DHT22;5597;47.588;9.642;2022-09-09T14:46:06;26.50;99.90
11087;DHT22;5597;47.588;9.642;2022-09-09T14:48:32;26.50;99.90
11087;DHT22;5597;47.588;9.642;2022-09-09T14:51:05;26.60;99.90
11087;DHT22;5597;47.588;9.642;2022-09-09T14:53:30;26.80;99.90
11087;DHT22;5597;47.588;9.642;2022-09-09T14:56:10;26.80;99.90
11087;DHT22;5597;47.588;9.642;2022-09-09T14:58:36;26.60;99.90
11087;DHT22;5597;47.588;9.642;2022-09-09T15:01:08;26.50;99.90
11087;DHT22;5597;47.588;9.642;2022-09-09T15:03:36;26.70;99.90
11087;DHT22;5597;47.588;9.642;2022-09-09T15:06:10;26.80;99.90
11087;DHT22;5597;47.588;9.642;2022-09-09T15:08:37;26.90;99.90
11087;DHT22;5597;47.588;9.642;2022-09-09T15:11:04;27.00;99.90
11087;DHT22;5597;47.588;9.642;2022-09-09T15:13:30;26.80;99.90
11087;DHT22;5597;47.588;9.642;2022-09-09T15:16:00;26.50;99.90
11087;DHT22;5597;47.588;9.642;2022-09-09T15:18:28;26.30;99.90
11087;DHT22;5597;47.588;9.642;2022-09-09T15:20:54;26.00;99.90
11087;DHT22;5597;47.588;9.642;2022-09-09T15:23:20;25.90;99.90
11087;DHT22;5597;47.588;9.642;2022-09-09T15:25:53;26.00;99.90
11087;DHT22;5597;47.588;9.642;2022-09-09T15:28:19;26.10;99.90
11087;DHT22;5597;47.588;9.642;2022-09-09T15:30:48;26.10;99.90
11087;DHT22;5597;47.588;9.642;2022-09-09T15:33:13;26.10;99.90
11087;DHT22;5597;47.588;9.642;2022-09-09T15:35:39;26.00;99.90
11087;DHT22;5597;47.588;9.642;2022-09-09T15:38:05;25.80;99.90
11087;DHT22;5597;47.588;9.642;2022-09-09T15:40:31;25.60;99.90
11087;DHT22;5597;47.588;9.642;2022-09-09T15:43:00;25.40;99.90
11087;DHT22;5597;47.588;9.642;2022-09-09T15:45:26;25.10;99.90
11087;DHT22;5597;47.588;9.642;2022-09-09T15:47:52;24.90;99.90
11087;DHT22;5597;47.588;9.642;2022-09-09T15:50:18;24.90;99.90
11087;DHT22;5597;47.588;9.642;2022-09-09T15:52:43;24.80;99.90
11087;DHT22;5597;47.588;9.642;2022-09-09T15:55:10;24.80;99.90
11087;DHT22;5597;47.588;9.642;2022-09-09T15:57:35;24.70;99.90
11087;DHT22;5597;47.588;9.642;2022-09-09T16:00:03;24.50;99.90
11087;DHT22;5597;47.588;9.642;2022-09-09T16:02:29;24.40;99.90
11087;DHT22;5597;47.588;9.642;2022-09-09T16:04:56;24.20;99.90
11087;DHT22;5597;47.588;9.642;2022-09-09T16:07:23;24.00;99.90
11087;DHT22;5597;47.588;9.642;2022-09-09T16:09:48;23.90;99.90
11087;DHT22;5597;47.588;9.642;2022-09-09T16:12:17;23.70;99.90
11087;DHT22;5597;47.588;9.642;2022-09-09T16:14:42;23.60;99.90
11087;DHT22;5597;47.588;9.642;2022-09-09T16:17:08;23.50;99.90
11087;DHT22;5597;47.588;9.642;2022-09-09T16:19:34;23.30;99.90
11087;DHT22;5597;47.588;9.642;2022-09-09T16:22:00;23.10;99.90
11087;DHT22;5597;47.588;9.642;2022-09-09T16:24:25;23.00;99.90
11087;DHT22;5597;47.588;9.642;2022-09-09T16:26:53;22.90;99.90
11087;DHT22;5597;47.588;9.642;2022-09-09T16:29:20;22.80;99.90
11087;DHT22;5597;47.588;9.642;2022-09-09T16:31:47;22.70;99.90
11087;DHT22;5597;47.588;9.642;2022-09-09T16:34:14;22.60;99.90
11087;DHT22;5597;47.588;9.642;2022-09-09T16:36:41;22.70;99.90
11087;DHT22;5597;47.588;9.642;2022-09-09T16:39:09;22.90;99.90
11087;DHT22;5597;47.588;9.642;2022-09-09T16:41:37;23.00;99.90
11087;DHT22;5597;47.588;9.642;2022-09-09T16:44:05;23.00;99.90
11087;DHT22;5597;47.588;9.642;2022-09-09T16:46:32;23.20;99.90
11087;DHT22;5597;47.588;9.642;2022-09-09T16:49:00;23.30;99.90
11087;DHT22;5597;47.588;9.642;2022-09-09T16:51:31;23.40;99.90
11087;DHT22;5597;47.588;9.642;2022-09-09T16:54:02;23.30;99.90
11087;DHT22;5597;47.588;9.642;2022-09-09T16:56:31;23.20;99.90
11087;DHT22;5597;47.588;9.642;2022-09-09T16:59:01;23.10;99.90
11087;DHT22;5597;47.588;9.642;2022-09-09T17:01:32;22.80;99.90
11087;DHT22;5597;47.588;9.642;2022-09-09T17:04:00;22.60;99.90
11087;DHT22;5597;47.588;9.642;2022-09-09T17:06:27;22.60;99.90
11087;DHT22;5597;47.588;9.642;2022-09-09T17:09:00;22.60;99.90
11087;DHT22;5597;47.588;9.642;2022-09-09T17:11:27;22.40;99.90
11087;DHT22;5597;47.588;9.642;2022-09-09T17:13:53;22.20;99.90
11087;DHT22;5597;47.588;9.642;2022-09-09T17:16:21;22.20;99.90
11087;DHT22;5597;47.588;9.642;2022-09-09T17:18:48;22.20;99.90
11087;DHT22;5597;47.588;9.642;2022-09-09T17:21:16;22.10;99.90
11087;DHT22;5597;47.588;9.642;2022-09-09T17:23:42;21.90;99.90
11087;DHT22;5597;47.588;9.642;2022-09-09T17:26:11;21.50;99.90
11087;DHT22;5597;47.588;9.642;2022-09-09T17:28:38;21.20;99.90
11087;DHT22;5597;47.588;9.642;2022-09-09T17:31:05;21.00;99.90
11087;DHT22;5597;47.588;9.642;2022-09-09T17:33:37;20.70;99.90
11087;DHT22;5597;47.588;9.642;2022-09-09T17:36:11;20.50;99.90
11087;DHT22;5597;47.588;9.642;2022-09-09T17:38:37;20.50;99.90
11087;DHT22;5597;47.588;9.642;2022-09-09T17:41:08;20.30;99.90
11087;DHT22;5597;47.588;9.642;2022-09-09T17:43:34;20.20;99.90
11087;DHT22;5597;47.588;9.642;2022-09-09T17:46:18;20.00;99.90
11087;DHT22;5597;47.588;9.642;2022-09-09T17:48:48;19.70;99.90
11087;DHT22;5597;47.588;9.642;2022-09-09T17:51:17;19.40;99.90
11087;DHT22;5597;47.588;9.642;2022-09-09T17:53:47;19.20;99.90
11087;DHT22;5597;47.588;9.642;2022-09-09T17:56:16;19.00;99.90
11087;DHT22;5597;47.588;9.642;2022-09-09T17:58:42;18.90;99.90
11087;DHT22;5597;47.588;9.642;2022-09-09T18:01:15;18.80;99.90
11087;DHT22;5597;47.588;9.642;2022-09-09T18:03:42;18.60;99.90
11087;DHT22;5597;47.588;9.642;2022-09-09T18:06:11;18.60;99.90
11087;DHT22;5597;47.588;9.642;2022-09-09T18:08:42;18.50;99.90